Time;durP1;ratioP1;P1;durP2;ratioP2;P2;SDS_P1;SDS_P2;PMS_P1;PMS_P2;Temp;Humidity;BMP_temperature;BMP_pressure;BME280_temperature;BME280_humidity;BME280_pressure;Samples;Min_cycle;Max_cycle;Signal;HPM_P1;HPM_P2
2023/01/25 00:02:16;;;;;;;18.00;8.93;;;;;;;0.66;100.00;103516.91;6201624;28;20058;-71
2023/01/25 00:05:19;;;;;;;17.98;7.97;;;;;;;0.66;100.00;103509.16;6201501;28;20053;-70
2023/01/25 00:08:20;;;;;;;19.85;9.98;;;;;;;0.59;100.00;103509.81;6201482;28;20423;-70
2023/01/25 00:11:21;;;;;;;15.95;8.00;;;;;;;0.64;100.00;103503.06;6201672;28;20414;-70
2023/01/25 00:14:23;;;;;;;16.23;8.07;;;;;;;0.64;100.00;103503.06;6219279;28;20498;-70
2023/01/25 00:17:24;;;;;;;17.55;7.95;;;;;;;0.63;100.00;103490.94;6201342;28;20054;-71
2023/01/25 00:20:27;;;;;;;23.58;8.60;;;;;;;0.58;100.00;103499.38;6201041;28;20056;-70
2023/01/25 00:23:28;;;;;;;16.67;7.50;;;;;;;0.59;100.00;103493.38;6201225;28;20422;-71
2023/01/25 00:26:30;;;;;;;20.13;9.25;;;;;;;0.47;100.00;103486.13;6200996;28;20054;-70
2023/01/25 00:29:32;;;;;;;20.52;9.32;;;;;;;0.52;100.00;103488.84;6201021;28;20509;-70
2023/01/25 00:32:46;;;;;;;22.73;8.82;;;;;;;0.45;100.00;103482.56;6201017;28;20061;-70
2023/01/25 00:35:49;;;;;;;17.17;7.57;;;;;;;0.48;100.00;103485.28;6200618;28;20054;-70
2023/01/25 00:38:53;;;;;;;13.82;6.93;;;;;;;0.48;100.00;103474.94;6200981;28;20046;-69
2023/01/25 00:41:54;;;;;;;19.85;8.23;;;;;;;0.27;100.00;103480.25;6200544;28;20047;-70
2023/01/25 00:44:56;;;;;;;23.98;8.57;;;;;;;0.20;100.00;103481.78;6200757;28;20532;-70
2023/01/25 00:47:57;;;;;;;15.10;8.10;;;;;;;0.30;100.00;103485.53;6199878;28;20057;-71
2023/01/25 00:51:01;;;;;;;15.65;7.65;;;;;;;0.25;100.00;103484.53;6200557;28;20046;-70
2023/01/25 00:54:03;;;;;;;13.10;6.35;;;;;;;0.33;100.00;103479.63;6200188;28;20050;-70
2023/01/25 00:57:05;;;;;;;12.13;7.18;;;;;;;0.31;100.00;103471.78;6200564;28;20051;-70
2023/01/25 01:00:08;;;;;;;14.18;7.72;;;;;;;0.30;100.00;103464.84;6200164;28;20446;-70
2023/01/25 01:03:10;;;;;;;20.70;8.18;;;;;;;0.33;100.00;103466.69;6200142;28;20545;-70
2023/01/25 01:06:12;;;;;;;13.70;8.05;;;;;;;0.32;100.00;103463.22;6200108;28;20057;-70
2023/01/25 01:09:15;;;;;;;12.10;5.63;;;;;;;0.35;100.00;103471.06;6200405;28;20490;-70
2023/01/25 01:12:16;;;;;;;14.35;7.40;;;;;;;0.38;100.00;103466.00;6200009;28;20065;-71
2023/01/25 01:15:18;;;;;;;13.68;6.85;;;;;;;0.42;100.00;103464.41;6199887;28;20053;-71
2023/01/25 01:18:19;;;;;;;13.10;7.53;;;;;;;0.33;100.00;103466.69;6200257;28;20398;-70
2023/01/25 01:21:22;;;;;;;15.70;7.88;;;;;;;0.30;100.00;103467.44;6199596;28;20046;-71
2023/01/25 01:24:23;;;;;;;12.52;6.45;;;;;;;0.39;100.00;103472.91;6199781;28;20403;-70
2023/01/25 01:27:24;;;;;;;18.25;7.30;;;;;;;0.36;100.00;103467.63;6199607;28;20057;-70
2023/01/25 01:30:26;;;;;;;14.55;6.93;;;;;;;0.30;100.00;103472.63;6199795;28;20057;-70
2023/01/25 01:33:27;;;;;;;14.52;7.85;;;;;;;0.33;100.00;103457.22;6199696;28;20050;-70
2023/01/25 01:36:31;;;;;;;20.73;7.70;;;;;;;0.34;100.00;103465.84;6199316;28;20061;-70
2023/01/25 01:39:32;;;;;;;16.17;7.50;;;;;;;0.33;100.00;103456.34;6199405;28;20054;-71
2023/01/25 01:42:33;;;;;;;18.83;9.35;;;;;;;0.20;100.00;103455.91;6199120;28;20454;-71
2023/01/25 01:45:53;;;;;;;20.23;8.45;;;;;;;0.29;100.00;103457.94;6199314;28;20050;-70
2023/01/25 01:48:58;;;;;;;16.85;7.82;;;;;;;0.28;100.00;103443.25;6199087;28;20057;-71
2023/01/25 01:52:05;;;;;;;12.90;6.70;;;;;;;0.33;100.00;103451.16;6199231;28;20057;-70
2023/01/25 01:55:10;;;;;;;15.70;8.60;;;;;;;0.34;100.00;103433.09;6198778;28;20062;-70
2023/01/25 01:58:11;;;;;;;12.73;6.45;;;;;;;0.36;100.00;103430.53;6199363;28;20676;-70
2023/01/25 02:01:13;;;;;;;15.45;6.85;;;;;;;0.33;100.00;103430.47;6197736;28;20046;-70
2023/01/25 02:04:18;;;;;;;12.70;6.07;;;;;;;0.36;100.00;103427.97;6198749;28;20057;-70
2023/01/25 02:07:27;;;;;;;11.55;6.40;;;;;;;0.28;100.00;103434.63;6198847;28;20399;-70
2023/01/25 02:10:29;;;;;;;12.43;6.55;;;;;;;0.32;100.00;103421.84;6198554;28;20054;-70
2023/01/25 02:13:32;;;;;;;9.95;5.43;;;;;;;0.32;100.00;103408.91;6198658;28;20054;-70
2023/01/25 02:16:33;;;;;;;14.02;6.15;;;;;;;0.36;100.00;103415.03;6198644;28;20061;-70
2023/01/25 02:19:46;;;;;;;14.70;6.40;;;;;;;0.28;100.00;103412.22;6198941;28;20050;-71
2023/01/25 02:23:04;;;;;;;8.82;4.72;;;;;;;0.25;100.00;103420.75;6198824;28;20058;-70
2023/01/25 02:26:07;;;;;;;9.25;5.28;;;;;;;0.20;100.00;103416.25;6198155;28;20406;-70
2023/01/25 02:29:09;;;;;;;13.15;6.43;;;;;;;0.11;100.00;103414.25;6198455;28;20050;-70
2023/01/25 02:32:10;;;;;;;12.57;6.72;;;;;;;0.19;100.00;103412.81;6198171;28;20078;-70
2023/01/25 02:35:19;;;;;;;12.10;6.32;;;;;;;0.19;100.00;103414.50;6202810;28;20057;-70
2023/01/25 02:38:21;;;;;;;13.27;6.25;;;;;;;0.23;100.00;103406.91;6222179;28;20053;-71
2023/01/25 02:41:28;;;;;;;19.52;6.75;;;;;;;0.24;100.00;103405.19;6220692;28;20049;-70
2023/01/25 02:44:32;;;;;;;11.65;5.55;;;;;;;0.31;100.00;103389.03;6220707;28;20056;-70
2023/01/25 02:47:33;;;;;;;14.65;5.63;;;;;;;0.37;100.00;103396.13;6221170;28;20052;-70
2023/01/25 02:50:34;;;;;;;14.27;6.00;;;;;;;0.36;100.00;103387.44;6220700;28;20055;-70
2023/01/25 02:53:35;;;;;;;11.65;5.43;;;;;;;0.38;100.00;103388.41;6220432;28;20465;-72
2023/01/25 02:56:40;;;;;;;13.32;6.07;;;;;;;0.38;100.00;103390.09;6220475;28;20501;-70
2023/01/25 02:59:41;;;;;;;11.13;5.40;;;;;;;0.40;100.00;103394.47;6220251;28;20061;-71
2023/01/25 03:02:43;;;;;;;10.93;5.35;;;;;;;0.44;100.00;103396.34;6220639;28;20045;-70
2023/01/25 03:05:44;;;;;;;10.30;5.75;;;;;;;0.46;100.00;103376.59;6220327;28;20509;-71
2023/01/25 03:08:45;;;;;;;7.90;4.65;;;;;;;0.49;100.00;103380.97;6221865;28;20520;-71
2023/01/25 03:11:48;;;;;;;13.15;6.40;;;;;;;0.47;100.00;103375.75;6221656;28;20061;-71
2023/01/25 03:14:49;;;;;;;14.07;5.68;;;;;;;0.49;100.00;103366.31;6222084;28;20054;-70
2023/01/25 03:17:51;;;;;;;10.77;5.63;;;;;;;0.49;100.00;103363.72;6222033;28;20053;-71
2023/01/25 03:20:52;;;;;;;13.10;6.13;;;;;;;0.51;100.00;103356.03;6221929;28;20053;-71
2023/01/25 03:23:58;;;;;;;8.52;4.85;;;;;;;0.50;100.00;103354.28;6221913;28;20391;-70
2023/01/25 03:27:10;;;;;;;11.02;5.10;;;;;;;0.45;100.00;103353.22;6221834;28;20057;-70
2023/01/25 03:30:12;;;;;;;11.65;5.70;;;;;;;0.49;100.00;103353.38;6220849;28;20409;-70
2023/01/25 03:33:13;;;;;;;12.05;5.30;;;;;;;0.49;100.00;103347.31;6221980;28;20053;-70
2023/01/25 03:36:15;;;;;;;10.95;4.88;;;;;;;0.52;100.00;103338.78;6221664;28;20050;-70
2023/01/25 03:39:16;;;;;;;7.20;3.78;;;;;;;0.43;100.00;103334.22;6222069;28;20076;-70
2023/01/25 03:42:21;;;;;;;9.93;5.30;;;;;;;0.46;100.00;103334.31;6221509;28;20054;-70
2023/01/25 03:45:22;;;;;;;12.85;5.63;;;;;;;0.48;100.00;103335.22;6222160;28;20489;-70
2023/01/25 03:48:24;;;;;;;11.77;5.00;;;;;;;0.50;100.00;103326.69;6221662;28;20053;-70
2023/01/25 03:51:26;;;;;;;9.38;4.60;;;;;;;0.52;100.00;103326.75;6221753;28;20053;-71
2023/01/25 03:54:27;;;;;;;7.38;4.10;;;;;;;0.49;100.00;103318.88;6221443;28;20054;-70
2023/01/25 03:57:30;;;;;;;10.93;5.40;;;;;;;0.43;100.00;103322.16;6221468;28;20057;-70
2023/01/25 04:00:31;;;;;;;9.02;4.47;;;;;;;0.47;100.00;103323.13;6221515;28;20490;-70
2023/01/25 04:03:33;;;;;;;9.13;4.22;;;;;;;0.50;100.00;103321.53;6221531;28;20054;-70
2023/01/25 04:06:35;;;;;;;9.30;4.70;;;;;;;0.49;100.00;103314.56;6221821;28;20057;-70
2023/01/25 04:09:36;;;;;;;7.82;4.43;;;;;;;0.53;100.00;103325.91;6221366;28;20057;-71
2023/01/25 04:12:38;;;;;;;11.48;5.35;;;;;;;0.51;100.00;103325.00;6221502;28;20512;-70
2023/01/25 04:15:40;;;;;;;9.88;4.35;;;;;;;0.53;100.00;103310.38;6221227;28;20049;-70
2023/01/25 04:18:41;;;;;;;8.88;4.72;;;;;;;0.46;100.00;103300.69;6221477;28;20513;-71
2023/01/25 04:21:42;;;;;;;13.68;6.13;;;;;;;0.43;100.00;103298.00;6221096;28;20046;-70
2023/01/25 04:24:44;;;;;;;9.45;4.93;;;;;;;0.42;100.00;103309.19;6224757;28;20050;-71
2023/01/25 04:27:47;;;;;;;6.90;3.85;;;;;;;0.41;100.00;103308.31;6225748;28;20141;-70
2023/01/25 04:30:48;;;;;;;9.52;5.28;;;;;;;0.36;100.00;103296.94;6225202;28;20054;-70
2023/01/25 04:33:49;;;;;;;12.02;4.90;;;;;;;0.38;100.00;103299.59;6225333;28;20054;-71
2023/01/25 04:36:51;;;;;;;13.18;5.85;;;;;;;0.41;100.00;103294.47;6225265;28;20099;-70
2023/01/25 04:39:52;;;;;;;11.98;5.75;;;;;;;0.38;100.00;103291.81;6225367;28;20057;-70
2023/01/25 04:42:55;;;;;;;14.57;5.70;;;;;;;0.38;100.00;103295.28;6225412;28;20041;-72
2023/01/25 04:45:56;;;;;;;12.48;5.85;;;;;;;0.40;100.00;103291.03;6225072;28;20061;-71
2023/01/25 04:48:57;;;;;;;12.85;6.05;;;;;;;0.39;100.00;103286.69;6225378;28;20054;-72
2023/01/25 04:51:58;;;;;;;16.58;6.47;;;;;;;0.43;100.00;103296.28;6224964;28;20050;-70
2023/01/25 04:55:00;;;;;;;9.45;5.32;;;;;;;0.39;100.00;103293.56;6224625;28;20104;-70
2023/01/25 04:58:04;;;;;;;11.68;6.47;;;;;;;0.34;100.00;103293.44;6224883;28;20046;-70
2023/01/25 05:01:06;;;;;;;12.60;6.47;;;;;;;0.33;100.00;103286.50;6224642;28;20125;-70
2023/01/25 05:04:07;;;;;;;12.10;5.88;;;;;;;0.36;100.00;103277.94;6224554;28;20085;-70
2023/01/25 05:07:08;;;;;;;13.18;5.97;;;;;;;0.35;100.00;103273.63;6224831;28;20053;-71
2023/01/25 05:10:10;;;;;;;14.32;6.25;;;;;;;0.36;100.00;103276.25;6224466;28;20054;-70
2023/01/25 05:13:13;;;;;;;12.40;5.70;;;;;;;0.36;100.00;103275.38;6224628;28;20053;-70
2023/01/25 05:16:14;;;;;;;10.98;5.57;;;;;;;0.37;100.00;103278.03;6224239;28;20061;-71
2023/01/25 05:19:16;;;;;;;12.38;5.45;;;;;;;0.36;100.00;103271.06;6224674;28;20076;-70
2023/01/25 05:22:19;;;;;;;10.73;5.45;;;;;;;0.27;100.00;103275.97;6224269;28;20054;-70
2023/01/25 05:28:41;;;;;;;11.32;5.40;;;;;;;0.28;100.00;103271.69;6224198;28;20082;-70
2023/01/25 05:31:42;;;;;;;8.77;4.93;;;;;;;0.31;100.00;103269.19;6223163;28;20042;-70
2023/01/25 05:34:44;;;;;;;17.42;7.53;;;;;;;0.34;100.00;103265.00;6222935;28;20046;-70
2023/01/25 05:37:46;;;;;;;12.05;6.22;;;;;;;0.37;100.00;103261.63;6214618;28;20054;-70
2023/01/25 05:40:47;;;;;;;11.25;6.00;;;;;;;0.36;100.00;103258.13;6206641;28;20057;-70
2023/01/25 05:43:50;;;;;;;12.32;6.03;;;;;;;0.33;100.00;103260.66;6207769;28;20050;-71
2023/01/25 05:46:51;;;;;;;15.15;6.68;;;;;;;0.39;100.00;103253.06;6214069;28;20046;-70
2023/01/25 05:49:52;;;;;;;12.98;5.43;;;;;;;0.41;100.00;103248.81;6199240;28;20057;-70
2023/01/25 05:52:54;;;;;;;11.38;5.88;;;;;;;0.40;100.00;103261.69;6212081;28;20050;-70
2023/01/25 05:55:55;;;;;;;11.02;6.25;;;;;;;0.31;100.00;103261.44;6223196;28;20057;-70
2023/01/25 05:58:59;;;;;;;8.88;4.05;;;;;;;0.31;100.00;103262.28;6204822;28;20054;-70
2023/01/25 06:02:01;;;;;;;10.07;4.95;;;;;;;0.31;100.00;103257.13;6214492;28;20053;-70
2023/01/25 06:05:02;;;;;;;9.80;5.30;;;;;;;0.33;100.00;103249.44;6203727;28;20054;-71
2023/01/25 06:08:03;;;;;;;10.35;4.60;;;;;;;0.29;100.00;103247.59;6203499;28;20049;-71
2023/01/25 06:11:07;;;;;;;9.90;4.40;;;;;;;0.24;100.00;103247.44;6211600;28;20046;-70
2023/01/25 06:14:09;;;;;;;9.45;4.28;;;;;;;0.25;100.00;103246.63;6210885;28;20464;-70
2023/01/25 06:17:11;;;;;;;9.90;4.55;;;;;;;0.28;100.00;103241.53;6202537;28;20050;-71
2023/01/25 06:20:12;;;;;;;9.80;5.18;;;;;;;0.29;100.00;103237.25;6198911;28;20509;-71
2023/01/25 06:23:14;;;;;;;8.82;4.03;;;;;;;0.16;100.00;103244.63;6198649;28;20046;-70
2023/01/25 06:26:15;;;;;;;6.97;4.03;;;;;;;0.17;100.00;103248.09;6198733;28;20057;-70
2023/01/25 06:29:18;;;;;;;8.98;4.18;;;;;;;0.17;100.00;103235.16;6198502;28;20054;-70
2023/01/25 06:32:20;;;;;;;8.90;4.72;;;;;;;0.11;100.00;103242.75;6198261;28;20046;-70
2023/01/25 06:35:21;;;;;;;8.35;5.10;;;;;;;0.16;100.00;103242.03;6198215;28;20057;-70
2023/01/25 06:38:22;;;;;;;8.02;3.70;;;;;;;0.14;100.00;103246.31;6198515;28;20053;-71
2023/01/25 06:41:24;;;;;;;10.77;5.82;;;;;;;0.10;100.00;103244.47;6198267;28;20056;-70
2023/01/25 06:44:26;;;;;;;15.63;6.10;;;;;;;0.13;100.00;103229.00;6197925;28;20061;-70
2023/01/25 06:47:27;;;;;;;8.05;4.40;;;;;;;0.16;100.00;103234.28;6197494;28;20073;-70
2023/01/25 06:50:29;;;;;;;9.05;4.85;;;;;;;0.13;100.00;103235.91;6197808;28;20050;-70
2023/01/25 06:53:32;;;;;;;9.93;5.03;;;;;;;0.20;100.00;103245.59;6198178;28;20046;-70
2023/01/25 06:56:34;;;;;;;7.78;3.63;;;;;;;0.26;100.00;103232.84;6204757;28;20053;-70
2023/01/25 06:59:36;;;;;;;9.80;5.00;;;;;;;0.34;100.00;103233.06;6220930;28;20046;-70
2023/01/25 07:02:38;;;;;;;10.27;5.40;;;;;;;0.34;100.00;103235.66;6219552;28;20057;-70
2023/01/25 07:05:39;;;;;;;16.40;6.22;;;;;;;0.36;100.00;103233.97;6220580;28;20053;-70
2023/01/25 07:08:40;;;;;;;8.82;4.55;;;;;;;0.34;100.00;103235.66;6218159;28;20042;-71
2023/01/25 07:11:42;;;;;;;8.77;4.95;;;;;;;0.25;100.00;103231.97;6220250;28;20057;-71
2023/01/25 07:14:46;;;;;;;13.40;5.70;;;;;;;0.22;100.00;103236.16;6220321;28;20148;-70
2023/01/25 07:17:48;;;;;;;11.65;5.30;;;;;;;0.13;100.00;103241.06;6217915;28;20101;-71
2023/01/25 07:20:49;;;;;;;11.70;4.35;;;;;;;0.02;100.00;103245.06;6220294;28;20045;-71
2023/01/25 07:23:51;;;;;;;9.45;4.40;;;;;;;0.01;100.00;103243.31;6220100;28;20049;-71
2023/01/25 07:26:52;;;;;;;9.77;4.88;;;;;;;0.09;100.00;103237.53;6220423;28;20041;-71
2023/01/25 07:29:55;;;;;;;9.35;5.20;;;;;;;0.12;100.00;103231.56;6220103;28;20070;-70
2023/01/25 07:32:59;;;;;;;12.30;5.25;;;;;;;0.14;100.00;103233.38;6220310;28;20049;-71
2023/01/25 07:36:00;;;;;;;11.18;5.22;;;;;;;0.19;100.00;103218.00;6219822;28;20086;-70
2023/01/25 07:39:02;;;;;;;11.00;4.88;;;;;;;0.16;100.00;103211.03;6220241;28;20049;-69
2023/01/25 07:42:03;;;;;;;10.80;5.53;;;;;;;0.17;100.00;103215.34;6219780;28;20514;-70
2023/01/25 07:45:08;;;;;;;11.43;5.85;;;;;;;0.21;100.00;103212.03;6219888;28;20052;-70
2023/01/25 07:48:10;;;;;;;15.20;5.18;;;;;;;0.18;100.00;103217.13;6217577;28;20046;-71
2023/01/25 07:51:11;;;;;;;12.57;5.63;;;;;;;0.01;100.00;103210.56;6219682;28;20049;-71
2023/01/25 07:54:13;;;;;;;14.27;5.38;;;;;;;0.01;100.00;103207.13;6219726;28;20054;-70
2023/01/25 07:57:15;;;;;;;9.02;4.68;;;;;;;0.11;100.00;103209.13;6221104;28;20548;-69
2023/01/25 08:00:18;;;;;;;12.80;5.50;;;;;;;0.07;100.00;103205.56;6225129;28;20494;-70
2023/01/25 08:03:21;;;;;;;10.25;6.20;;;;;;;-0.03;100.00;103206.16;6224195;28;20042;-71
2023/01/25 08:06:26;;;;;;;17.48;7.60;;;;;;;-0.10;100.00;103202.47;6221839;28;20050;-70
2023/01/25 08:09:27;;;;;;;11.50;5.47;;;;;;;-0.07;100.00;103206.88;6224601;28;20470;-70
2023/01/25 08:12:28;;;;;;;15.32;7.45;;;;;;;0.05;100.00;103201.22;6224663;28;20050;-71
2023/01/25 08:15:31;;;;;;;23.02;6.85;;;;;;;0.14;100.00;103193.72;6225581;28;20080;-70
2023/01/25 08:18:32;;;;;;;21.40;6.80;;;;;;;0.19;100.00;103195.59;6224420;28;20520;-70
2023/01/25 08:21:34;;;;;;;13.85;6.90;;;;;;;0.13;100.00;103200.56;6231345;28;20470;-71
2023/01/25 08:24:36;;;;;;;14.57;6.80;;;;;;;0.09;100.00;103200.44;6224196;28;20045;-71
2023/01/25 08:27:37;;;;;;;18.48;7.68;;;;;;;-0.03;100.00;103196.69;6224356;28;20037;-71
2023/01/25 08:30:39;;;;;;;17.92;6.22;;;;;;;-0.05;100.00;103189.69;6224979;28;20056;-71
2023/01/25 08:33:43;;;;;;;13.68;6.80;;;;;;;-0.02;100.00;103190.66;6216885;28;20414;-71
2023/01/25 08:36:44;;;;;;;15.82;7.13;;;;;;;0.02;100.00;103183.00;6225058;28;20050;-70
2023/01/25 08:39:45;;;;;;;19.88;7.55;;;;;;;0.04;100.00;103178.75;6225430;28;20060;-71
2023/01/25 08:42:47;;;;;;;12.60;6.38;;;;;;;0.17;100.00;103181.75;6224957;28;20071;-71
2023/01/25 08:45:57;;;;;;;22.52;8.15;;;;;;;0.18;100.00;103174.84;6225409;28;20108;-71
2023/01/25 08:49:00;;;;;;;16.90;7.18;;;;;;;0.21;100.00;103180.13;6224926;28;20494;-70
2023/01/25 08:52:01;;;;;;;22.20;8.88;;;;;;;0.13;100.00;103179.03;6243218;28;20053;-71
2023/01/25 08:55:03;;;;;;;20.60;8.75;;;;;;;0.16;100.00;103180.00;6249224;28;20056;-70
2023/01/25 08:58:04;;;;;;;16.92;8.07;;;;;;;0.09;100.00;103172.00;6249163;28;20057;-71
2023/01/25 09:01:08;;;;;;;18.58;8.63;;;;;;;0.03;100.00;103175.28;6249372;28;20045;-70
2023/01/25 09:04:10;;;;;;;22.45;8.98;;;;;;;-0.04;100.00;103166.50;6248925;28;20061;-71
2023/01/25 09:07:11;;;;;;;15.82;7.35;;;;;;;0.08;100.00;103157.34;6249436;28;20056;-70
2023/01/25 09:10:12;;;;;;;18.35;7.85;;;;;;;0.05;100.00;103152.09;6248369;28;20049;-71
2023/01/25 09:13:14;;;;;;;16.65;7.97;;;;;;;0.02;100.00;103146.81;6249349;28;20050;-70
2023/01/25 09:16:19;;;;;;;18.52;8.20;;;;;;;0.08;100.00;103141.81;6248621;28;20056;-71
2023/01/25 09:19:20;;;;;;;15.00;7.35;;;;;;;0.11;100.00;103147.97;6249018;28;20527;-70
2023/01/25 09:22:22;;;;;;;16.52;7.45;;;;;;;0.15;100.00;103133.44;6248574;28;20049;-70
2023/01/25 09:25:23;;;;;;;20.08;8.30;;;;;;;0.08;100.00;103131.47;6236449;28;20061;-70
2023/01/25 09:28:26;;;;;;;14.85;6.47;;;;;;;0.06;100.00;103131.44;6222144;28;20049;-70
2023/01/25 09:31:29;;;;;;;21.75;9.13;;;;;;;0.03;100.00;103122.72;6217316;28;20046;-70
2023/01/25 09:34:30;;;;;;;18.92;6.78;;;;;;;0.00;100.00;103115.78;6213815;28;20184;-71
2023/01/25 09:37:31;;;;;;;21.20;7.03;;;;;;;0.10;100.00;103116.91;6208455;28;20050;-71
2023/01/25 09:40:38;;;;;;;23.58;7.93;;;;;;;0.10;100.00;103115.19;6199624;28;20053;-75
2023/01/25 09:43:55;;;;;;;16.70;6.95;;;;;;;0.16;100.00;103119.66;6199183;28;20046;-70
2023/01/25 09:47:01;;;;;;;20.20;9.10;;;;;;;0.19;100.00;103114.59;6199348;28;20055;-70
2023/01/25 09:50:22;;;;;;;14.38;7.82;;;;;;;0.14;100.00;103109.28;6199194;28;20060;-71
2023/01/25 09:53:33;;;;;;;21.45;7.65;;;;;;;0.10;100.00;103104.00;6199488;28;20049;-70
2023/01/25 09:56:37;;;;;;;15.57;6.95;;;;;;;0.16;100.00;103115.34;6199308;28;20050;-71
2023/01/25 09:59:40;;;;;;;24.23;8.07;;;;;;;0.15;100.00;103110.16;6198959;28;20077;-71
2023/01/25 10:02:51;;;;;;;13.93;6.13;;;;;;;-0.11;100.00;103104.25;6198599;28;20112;-70
2023/01/25 10:05:56;;;;;;;18.08;6.70;;;;;;;-0.21;100.00;103104.81;6198847;28;20046;-71
2023/01/25 10:09:03;;;;;;;18.17;7.47;;;;;;;-0.23;100.00;103093.53;6198796;28;20050;-71
2023/01/25 10:12:13;;;;;;;15.02;7.00;;;;;;;-0.16;100.00;103095.47;6198753;28;20047;-71
2023/01/25 10:15:19;;;;;;;12.88;5.93;;;;;;;-0.18;100.00;103103.19;6198539;28;20054;-70
2023/01/25 10:18:30;;;;;;;24.60;8.45;;;;;;;-0.09;100.00;103102.56;6198655;28;20054;-71
2023/01/25 10:21:36;;;;;;;20.98;7.03;;;;;;;-0.26;100.00;103097.81;6197593;28;20058;-71
2023/01/25 10:25:04;;;;;;;12.20;6.30;;;;;;;-0.15;100.00;103089.47;6210036;28;20042;-70
2023/01/25 10:28:24;;;;;;;21.45;8.32;;;;;;;-0.17;100.00;103086.00;6240833;28;20049;-71
2023/01/25 10:31:35;;;;;;;20.60;6.93;;;;;;;-0.15;100.00;103080.00;6232337;28;20050;-71
2023/01/25 10:34:43;;;;;;;21.58;6.22;;;;;;;-0.15;100.00;103080.00;6221702;28;20062;-71
2023/01/25 10:37:45;;;;;;;11.30;6.22;;;;;;;-0.14;100.00;103067.97;6215252;28;20649;-71
2023/01/25 10:40:52;;;;;;;19.17;7.03;;;;;;;-0.19;100.00;103070.41;6222565;28;20050;-69
2023/01/25 10:44:20;;;;;;;15.27;5.93;;;;;;;-0.14;100.00;103053.34;6220126;28;20094;-70
2023/01/25 10:47:24;;;;;;;15.57;6.35;;;;;;;-0.16;100.00;103051.56;6197819;28;20053;-69
2023/01/25 10:50:56;;;;;;;16.70;6.53;;;;;;;-0.31;100.00;103046.84;6197879;28;20516;-70
2023/01/25 10:54:02;;;;;;;21.60;7.28;;;;;;;-0.27;100.00;103044.38;6197822;28;20133;-70
2023/01/25 10:57:06;;;;;;;19.75;7.55;;;;;;;-0.26;100.00;103038.38;6198132;28;20056;-70
2023/01/25 11:00:22;;;;;;;20.08;7.55;;;;;;;-0.30;100.00;103033.09;6198841;28;20046;-69
2023/01/25 11:03:34;;;;;;;20.38;8.02;;;;;;;-0.28;100.00;103034.00;6222033;28;20069;-70
2023/01/25 11:06:46;;;;;;;24.00;7.90;;;;;;;-0.18;100.00;103024.78;6222020;28;20054;-70
2023/01/25 11:09:47;;;;;;;16.92;8.05;;;;;;;-0.23;100.00;103010.88;6216590;28;20490;-70
2023/01/25 11:12:48;;;;;;;26.52;8.27;;;;;;;-0.28;100.00;102998.69;6217411;28;20050;-69
2023/01/25 11:15:52;;;;;;;22.88;9.00;;;;;;;-0.20;100.00;103004.06;6215930;28;20672;-70
2023/01/25 11:18:56;;;;;;;17.80;6.78;;;;;;;-0.28;100.00;102997.81;6205838;28;20042;-70
2023/01/25 11:22:00;;;;;;;18.00;5.85;;;;;;;-0.19;100.00;102994.63;6218505;28;20054;-70
2023/01/25 11:25:26;;;;;;;14.57;7.07;;;;;;;-0.40;100.00;102985.47;6197338;28;20429;-70
2023/01/25 11:28:27;;;;;;;20.58;7.38;;;;;;;-0.20;100.00;102988.56;6195993;28;20057;-70
2023/01/25 11:31:29;;;;;;;17.13;6.97;;;;;;;-0.26;100.00;102972.91;6196991;28;20430;-70
2023/01/25 11:34:30;;;;;;;12.65;6.00;;;;;;;-0.20;100.00;102969.63;6202546;28;20042;-70
2023/01/25 11:37:50;;;;;;;19.45;7.85;;;;;;;-0.24;100.00;102962.63;6202407;28;20494;-70
2023/01/25 11:41:00;;;;;;;15.75;7.63;;;;;;;-0.19;100.00;102959.31;6202442;28;20054;-70
2023/01/25 11:44:10;;;;;;;;;;;;;;;-0.22;100.00;102951.50;6202514;28;20050;-70
2023/01/25 11:47:23;;;;;;;18.27;6.55;;;;;;;-0.17;100.00;102941.28;6202482;28;19928;-70
2023/01/25 11:50:32;;;;;;;20.77;9.15;;;;;;;-0.22;100.00;102936.00;6202083;28;20054;-70
2023/01/25 11:53:50;;;;;;;19.38;7.38;;;;;;;-0.24;100.00;102942.81;6202160;28;20057;-70
2023/01/25 11:56:58;;;;;;;21.30;8.60;;;;;;;-0.20;100.00;102926.56;6201731;28;20403;-70
2023/01/25 12:00:14;;;;;;;21.73;7.70;;;;;;;-0.17;100.00;102903.41;6201891;28;20061;-70
2023/01/25 12:03:44;;;;;;;17.17;6.80;;;;;;;-0.24;100.00;102900.59;6201959;28;20418;-70
2023/01/25 12:06:58;;;;;;;24.67;7.35;;;;;;;-0.27;100.00;102893.69;6201697;28;20506;-69
2023/01/25 12:10:15;;;;;;;21.48;8.68;;;;;;;-0.29;100.00;102891.03;6201810;28;20068;-70
2023/01/25 12:13:24;;;;;;;19.50;8.77;;;;;;;-0.25;100.00;102881.66;6201652;28;20046;-70
2023/01/25 12:16:36;;;;;;;18.77;7.10;;;;;;;-0.22;100.00;102874.00;6201636;28;20058;-70
2023/01/25 12:19:53;;;;;;;23.38;7.88;;;;;;;-0.19;100.00;102870.59;6201421;28;20055;-70
2023/01/25 12:23:10;;;;;;;27.05;8.80;;;;;;;-0.26;100.00;102867.88;6201500;28;20057;-70
2023/01/25 12:26:28;;;;;;;16.95;7.15;;;;;;;-0.20;100.00;102845.59;6201383;28;20058;-70
2023/01/25 12:29:35;;;;;;;11.38;4.63;;;;;;;-0.30;100.00;102845.38;6201527;28;20450;-70
2023/01/25 12:32:41;;;;;;;17.95;5.82;;;;;;;-0.27;100.00;102831.66;6208356;28;20045;-70
2023/01/25 12:35:49;;;;;;;17.27;6.15;;;;;;;-0.30;100.00;102826.41;6221997;28;20133;-70
2023/01/25 12:38:54;;;;;;;18.48;5.00;;;;;;;-0.24;100.00;102823.97;6215929;28;20050;-70
2023/01/25 12:42:04;;;;;;;14.57;6.05;;;;;;;-0.25;100.00;102809.31;6209423;28;20050;-70
2023/01/25 12:45:12;;;;;;;18.67;5.13;;;;;;;-0.24;100.00;102800.72;6217388;28;20189;-69
2023/01/25 12:48:19;;;;;;;18.20;6.85;;;;;;;-0.31;100.00;102801.44;6223686;28;20061;-70
2023/01/25 12:51:22;;;;;;;19.00;8.13;;;;;;;-0.32;100.00;102789.31;6222021;28;20441;-70
2023/01/25 12:54:31;;;;;;;17.30;7.35;;;;;;;-0.34;100.00;102783.25;6239458;28;20053;-70
2023/01/25 12:57:40;;;;;;;16.38;6.25;;;;;;;-0.33;100.00;102770.38;6239810;28;20046;-70
2023/01/25 13:00:49;;;;;;;18.77;7.18;;;;;;;-0.37;100.00;102768.53;6224535;28;20054;-70
2023/01/25 13:04:04;;;;;;;13.93;6.97;;;;;;;-0.46;100.00;102760.56;6246897;28;20052;-70
2023/01/25 13:07:15;;;;;;;14.60;5.10;;;;;;;-0.39;100.00;102746.13;6231718;28;20065;-70
2023/01/25 13:10:20;;;;;;;18.30;7.93;;;;;;;-0.27;100.00;102739.53;6224571;28;20053;-70
2023/01/25 13:13:25;;;;;;;13.40;5.65;;;;;;;-0.18;100.00;102741.47;6224651;28;20046;-70
2023/01/25 13:16:42;;;;;;;16.00;5.43;;;;;;;-0.27;100.00;102739.53;6224932;28;20050;-70
2023/01/25 13:19:43;;;;;;;12.05;4.95;;;;;;;-0.31;100.00;102723.94;6236953;28;20049;-69
2023/01/25 13:22:57;;;;;;;18.08;5.53;;;;;;;-0.28;100.00;102714.50;6248738;28;20053;-70
2023/01/25 13:26:35;;;;;;;18.20;6.45;;;;;;;-0.17;100.00;102721.66;6248611;28;20417;-69
2023/01/25 13:29:48;;;;;;;20.20;6.45;;;;;;;-0.30;100.00;102712.75;6248094;28;20719;-70
2023/01/25 13:33:03;;;;;;;13.68;6.05;;;;;;;-0.28;100.00;102713.66;6230242;28;20544;-70
2023/01/25 13:36:38;;;;;;;16.25;6.80;;;;;;;-0.46;100.00;102708.94;6223448;28;20575;-69
2023/01/25 13:39:44;;;;;;;19.73;7.57;;;;;;;-0.34;100.00;102708.34;6218742;28;20050;-69
2023/01/25 13:42:59;;;;;;;16.50;5.50;;;;;;;-0.37;100.00;102714.31;6224075;28;20046;-69
2023/01/25 13:46:06;;;;;;;12.48;5.57;;;;;;;-0.37;100.00;102718.59;6223223;28;20061;-69
2023/01/25 13:49:20;;;;;;;15.95;4.72;;;;;;;-0.48;100.00;102709.75;6224042;28;20054;-68
2023/01/25 13:52:23;;;;;;;21.58;5.82;;;;;;;-0.51;100.00;102705.38;6223134;28;20049;-70
2023/01/25 13:55:25;;;;;;;15.13;6.95;;;;;;;-0.42;100.00;102704.72;6223128;28;20427;-70
2023/01/25 13:58:28;;;;;;;15.90;6.82;;;;;;;-0.38;100.00;102697.06;6223320;28;20045;-70
2023/01/25 14:01:35;;;;;;;11.60;4.93;;;;;;;-0.43;100.00;102702.97;6223181;28;20420;-70
2023/01/25 14:04:36;;;;;;;15.02;5.88;;;;;;;-0.39;100.00;102700.50;6223230;28;20418;-69
2023/01/25 14:07:39;;;;;;;15.68;5.90;;;;;;;-0.34;100.00;102700.59;6223003;28;20045;-69
2023/01/25 14:10:44;;;;;;;16.42;6.25;;;;;;;-0.41;100.00;102694.44;6222271;28;20058;-69
2023/01/25 14:13:56;;;;;;;19.70;6.50;;;;;;;-0.49;100.00;102697.69;6222688;28;20056;-69